sensor_id;sensor_type;location;lat;lon;timestamp;P1;durP1;ratioP1;P2;durP2;ratioP2
43457;SDS011;29046;54.184;18.680;2022-09-09T00:04:32;9.27;;;2.17;;
43457;SDS011;29046;54.184;18.680;2022-09-09T00:07:21;2.80;;;1.67;;
43457;SDS011;29046;54.184;18.680;2022-09-09T00:15:26;3.58;;;1.70;;
43457;SDS011;29046;54.184;18.680;2022-09-09T00:21:34;2.83;;;1.60;;
43457;SDS011;29046;54.184;18.680;2022-09-09T00:24:38;3.88;;;1.60;;
43457;SDS011;29046;54.184;18.680;2022-09-09T00:27:31;6.95;;;1.98;;
43457;SDS011;29046;54.184;18.680;2022-09-09T00:30:19;3.70;;;2.03;;
43457;SDS011;29046;54.184;18.680;2022-09-09T00:33:08;2.85;;;1.52;;
43457;SDS011;29046;54.184;18.680;2022-09-09T00:35:54;3.03;;;1.50;;
43457;SDS011;29046;54.184;18.680;2022-09-09T00:38:40;4.80;;;1.70;;
43457;SDS011;29046;54.184;18.680;2022-09-09T00:44:25;4.60;;;1.48;;
43457;SDS011;29046;54.184;18.680;2022-09-09T00:50:25;5.97;;;1.60;;
43457;SDS011;29046;54.184;18.680;2022-09-09T01:05:39;5.75;;;1.85;;
43457;SDS011;29046;54.184;18.680;2022-09-09T01:08:46;7.03;;;1.67;;
43457;SDS011;29046;54.184;18.680;2022-09-09T01:17:20;8.75;;;2.25;;
43457;SDS011;29046;54.184;18.680;2022-09-09T01:20:12;3.85;;;1.90;;
43457;SDS011;29046;54.184;18.680;2022-09-09T01:28:50;3.88;;;2.00;;
43457;SDS011;29046;54.184;18.680;2022-09-09T01:34:28;2.60;;;1.63;;
43457;SDS011;29046;54.184;18.680;2022-09-09T01:37:22;4.45;;;1.63;;
43457;SDS011;29046;54.184;18.680;2022-09-09T01:39:56;3.05;;;1.73;;
43457;SDS011;29046;54.184;18.680;2022-09-09T01:42:43;5.22;;;1.65;;
43457;SDS011;29046;54.184;18.680;2022-09-09T01:45:16;3.97;;;1.70;;
43457;SDS011;29046;54.184;18.680;2022-09-09T01:48:04;1.88;;;1.30;;
43457;SDS011;29046;54.184;18.680;2022-09-09T01:50:44;2.60;;;1.77;;
43457;SDS011;29046;54.184;18.680;2022-09-09T01:53:25;3.58;;;1.75;;
43457;SDS011;29046;54.184;18.680;2022-09-09T01:58:51;2.38;;;1.70;;
43457;SDS011;29046;54.184;18.680;2022-09-09T02:04:40;3.78;;;2.30;;
43457;SDS011;29046;54.184;18.680;2022-09-09T02:10:16;4.15;;;1.63;;
43457;SDS011;29046;54.184;18.680;2022-09-09T02:13:01;4.07;;;1.70;;
43457;SDS011;29046;54.184;18.680;2022-09-09T02:16:13;2.85;;;1.50;;
43457;SDS011;29046;54.184;18.680;2022-09-09T02:19:17;6.05;;;1.80;;
43457;SDS011;29046;54.184;18.680;2022-09-09T02:21:57;6.85;;;1.80;;
43457;SDS011;29046;54.184;18.680;2022-09-09T02:24:53;2.13;;;1.50;;
43457;SDS011;29046;54.184;18.680;2022-09-09T02:27:52;5.60;;;1.85;;
43457;SDS011;29046;54.184;18.680;2022-09-09T02:30:26;6.13;;;1.80;;
43457;SDS011;29046;54.184;18.680;2022-09-09T02:33:26;7.60;;;2.05;;
43457;SDS011;29046;54.184;18.680;2022-09-09T02:36:02;8.13;;;2.55;;
43457;SDS011;29046;54.184;18.680;2022-09-09T02:38:59;3.17;;;1.60;;
43457;SDS011;29046;54.184;18.680;2022-09-09T02:41:34;4.90;;;1.77;;
43457;SDS011;29046;54.184;18.680;2022-09-09T02:44:23;3.77;;;2.10;;
43457;SDS011;29046;54.184;18.680;2022-09-09T02:52:36;7.97;;;2.38;;
43457;SDS011;29046;54.184;18.680;2022-09-09T02:58:10;4.80;;;1.80;;
43457;SDS011;29046;54.184;18.680;2022-09-09T03:01:07;8.38;;;2.08;;
43457;SDS011;29046;54.184;18.680;2022-09-09T03:03:42;3.65;;;2.00;;
43457;SDS011;29046;54.184;18.680;2022-09-09T03:06:36;6.75;;;2.58;;
43457;SDS011;29046;54.184;18.680;2022-09-09T03:09:09;6.07;;;2.58;;
43457;SDS011;29046;54.184;18.680;2022-09-09T03:11:57;10.82;;;2.92;;
43457;SDS011;29046;54.184;18.680;2022-09-09T03:14:30;9.88;;;3.50;;
43457;SDS011;29046;54.184;18.680;2022-09-09T03:17:18;8.88;;;3.03;;
43457;SDS011;29046;54.184;18.680;2022-09-09T03:19:52;10.35;;;3.30;;
43457;SDS011;29046;54.184;18.680;2022-09-09T03:22:48;6.97;;;3.10;;
43457;SDS011;29046;54.184;18.680;2022-09-09T03:25:23;11.70;;;2.90;;
43457;SDS011;29046;54.184;18.680;2022-09-09T03:28:11;7.43;;;3.35;;
43457;SDS011;29046;54.184;18.680;2022-09-09T03:30:52;10.85;;;3.28;;
43457;SDS011;29046;54.184;18.680;2022-09-09T03:33:45;9.07;;;4.15;;
43457;SDS011;29046;54.184;18.680;2022-09-09T03:36:18;7.93;;;3.53;;
43457;SDS011;29046;54.184;18.680;2022-09-09T03:39:06;9.25;;;4.07;;
43457;SDS011;29046;54.184;18.680;2022-09-09T03:41:39;9.85;;;4.32;;
43457;SDS011;29046;54.184;18.680;2022-09-09T03:44:28;12.52;;;3.60;;
43457;SDS011;29046;54.184;18.680;2022-09-09T03:47:01;14.40;;;3.53;;
43457;SDS011;29046;54.184;18.680;2022-09-09T03:49:56;7.25;;;3.20;;
43457;SDS011;29046;54.184;18.680;2022-09-09T03:52:50;7.63;;;3.63;;
43457;SDS011;29046;54.184;18.680;2022-09-09T03:55:23;9.45;;;4.28;;
43457;SDS011;29046;54.184;18.680;2022-09-09T03:58:11;7.85;;;3.65;;
43457;SDS011;29046;54.184;18.680;2022-09-09T04:00:59;14.38;;;3.42;;
43457;SDS011;29046;54.184;18.680;2022-09-09T04:03:53;7.75;;;3.35;;
43457;SDS011;29046;54.184;18.680;2022-09-09T04:06:29;8.20;;;3.67;;
43457;SDS011;29046;54.184;18.680;2022-09-09T04:09:24;9.13;;;3.65;;
43457;SDS011;29046;54.184;18.680;2022-09-09T04:12:18;7.72;;;3.63;;
43457;SDS011;29046;54.184;18.680;2022-09-09T04:14:51;9.65;;;3.53;;
43457;SDS011;29046;54.184;18.680;2022-09-09T04:17:39;8.85;;;3.65;;
43457;SDS011;29046;54.184;18.680;2022-09-09T04:20:13;10.68;;;3.63;;
43457;SDS011;29046;54.184;18.680;2022-09-09T04:23:00;7.88;;;3.80;;
43457;SDS011;29046;54.184;18.680;2022-09-09T04:25:50;6.10;;;3.38;;
43457;SDS011;29046;54.184;18.680;2022-09-09T04:28:33;8.82;;;3.38;;
43457;SDS011;29046;54.184;18.680;2022-09-09T04:31:19;8.00;;;4.32;;
43457;SDS011;29046;54.184;18.680;2022-09-09T04:34:08;8.35;;;3.30;;
43457;SDS011;29046;54.184;18.680;2022-09-09T04:36:41;10.18;;;3.45;;
43457;SDS011;29046;54.184;18.680;2022-09-09T04:39:29;9.65;;;3.67;;
43457;SDS011;29046;54.184;18.680;2022-09-09T04:42:04;6.35;;;3.10;;
43457;SDS011;29046;54.184;18.680;2022-09-09T04:44:52;6.43;;;3.40;;
43457;SDS011;29046;54.184;18.680;2022-09-09T04:47:26;7.75;;;3.45;;
43457;SDS011;29046;54.184;18.680;2022-09-09T04:50:22;6.70;;;3.20;;
43457;SDS011;29046;54.184;18.680;2022-09-09T04:52:55;9.75;;;3.28;;
43457;SDS011;29046;54.184;18.680;2022-09-09T04:55:43;8.80;;;3.20;;
43457;SDS011;29046;54.184;18.680;2022-09-09T04:58:17;9.52;;;3.13;;
43457;SDS011;29046;54.184;18.680;2022-09-09T05:01:08;6.63;;;3.05;;
43457;SDS011;29046;54.184;18.680;2022-09-09T05:03:43;6.88;;;3.17;;
43457;SDS011;29046;54.184;18.680;2022-09-09T05:06:39;9.35;;;2.83;;
43457;SDS011;29046;54.184;18.680;2022-09-09T05:09:33;4.75;;;2.65;;
43457;SDS011;29046;54.184;18.680;2022-09-09T05:12:06;7.18;;;3.22;;
43457;SDS011;29046;54.184;18.680;2022-09-09T05:14:54;5.68;;;2.75;;
43457;SDS011;29046;54.184;18.680;2022-09-09T05:17:27;7.82;;;3.08;;
43457;SDS011;29046;54.184;18.680;2022-09-09T05:20:15;3.60;;;2.47;;
43457;SDS011;29046;54.184;18.680;2022-09-09T05:22:52;12.10;;;3.25;;
43457;SDS011;29046;54.184;18.680;2022-09-09T05:25:53;6.72;;;3.15;;
43457;SDS011;29046;54.184;18.680;2022-09-09T05:28:27;6.63;;;3.10;;
43457;SDS011;29046;54.184;18.680;2022-09-09T05:31:22;7.28;;;2.78;;
43457;SDS011;29046;54.184;18.680;2022-09-09T05:36:46;5.97;;;3.03;;
43457;SDS011;29046;54.184;18.680;2022-09-09T05:39:27;7.20;;;2.58;;
43457;SDS011;29046;54.184;18.680;2022-09-09T05:44:51;6.50;;;2.60;;
43457;SDS011;29046;54.184;18.680;2022-09-09T05:47:35;5.65;;;2.58;;
43457;SDS011;29046;54.184;18.680;2022-09-09T05:50:23;7.47;;;2.47;;
43457;SDS011;29046;54.184;18.680;2022-09-09T05:53:17;4.20;;;2.38;;
43457;SDS011;29046;54.184;18.680;2022-09-09T05:55:50;7.57;;;2.20;;
43457;SDS011;29046;54.184;18.680;2022-09-09T05:58:51;5.18;;;2.42;;
43457;SDS011;29046;54.184;18.680;2022-09-09T06:01:46;5.70;;;2.75;;
43457;SDS011;29046;54.184;18.680;2022-09-09T06:04:21;3.40;;;2.00;;
43457;SDS011;29046;54.184;18.680;2022-09-09T06:07:08;3.90;;;2.03;;
43457;SDS011;29046;54.184;18.680;2022-09-09T06:09:42;4.93;;;2.33;;
43457;SDS011;29046;54.184;18.680;2022-09-09T06:12:31;5.72;;;2.20;;
43457;SDS011;29046;54.184;18.680;2022-09-09T06:15:06;3.45;;;2.00;;
43457;SDS011;29046;54.184;18.680;2022-09-09T06:17:56;3.60;;;2.38;;
43457;SDS011;29046;54.184;18.680;2022-09-09T06:23:24;5.82;;;2.30;;
43457;SDS011;29046;54.184;18.680;2022-09-09T06:28:59;6.40;;;2.70;;
43457;SDS011;29046;54.184;18.680;2022-09-09T06:31:42;6.15;;;2.30;;
43457;SDS011;29046;54.184;18.680;2022-09-09T06:34:23;3.78;;;2.35;;
43457;SDS011;29046;54.184;18.680;2022-09-09T06:37:04;4.28;;;2.20;;
43457;SDS011;29046;54.184;18.680;2022-09-09T06:39:45;5.07;;;2.20;;
43457;SDS011;29046;54.184;18.680;2022-09-09T06:42:25;5.28;;;2.40;;
43457;SDS011;29046;54.184;18.680;2022-09-09T06:45:06;6.07;;;2.10;;
43457;SDS011;29046;54.184;18.680;2022-09-09T06:47:47;5.13;;;2.30;;
43457;SDS011;29046;54.184;18.680;2022-09-09T06:50:28;5.20;;;2.60;;
43457;SDS011;29046;54.184;18.680;2022-09-09T06:53:08;5.63;;;2.00;;
43457;SDS011;29046;54.184;18.680;2022-09-09T06:55:49;4.78;;;1.95;;
43457;SDS011;29046;54.184;18.680;2022-09-09T06:58:29;4.93;;;1.90;;
43457;SDS011;29046;54.184;18.680;2022-09-09T07:01:21;3.35;;;2.00;;
43457;SDS011;29046;54.184;18.680;2022-09-09T07:03:57;5.20;;;2.05;;
43457;SDS011;29046;54.184;18.680;2022-09-09T07:06:48;9.82;;;3.00;;
43457;SDS011;29046;54.184;18.680;2022-09-09T07:09:22;3.83;;;2.10;;
43457;SDS011;29046;54.184;18.680;2022-09-09T07:12:11;3.45;;;2.10;;
43457;SDS011;29046;54.184;18.680;2022-09-09T07:14:45;5.68;;;2.80;;
43457;SDS011;29046;54.184;18.680;2022-09-09T07:17:33;8.30;;;2.40;;
43457;SDS011;29046;54.184;18.680;2022-09-09T07:20:07;6.03;;;2.05;;
43457;SDS011;29046;54.184;18.680;2022-09-09T07:22:55;3.72;;;2.53;;
43457;SDS011;29046;54.184;18.680;2022-09-09T07:25:29;5.32;;;3.03;;
43457;SDS011;29046;54.184;18.680;2022-09-09T07:28:17;4.57;;;2.33;;
43457;SDS011;29046;54.184;18.680;2022-09-09T07:30:58;5.78;;;2.50;;
43457;SDS011;29046;54.184;18.680;2022-09-09T07:33:46;4.07;;;2.42;;
43457;SDS011;29046;54.184;18.680;2022-09-09T07:36:22;5.63;;;2.47;;
43457;SDS011;29046;54.184;18.680;2022-09-09T07:39:10;4.35;;;2.42;;
43457;SDS011;29046;54.184;18.680;2022-09-09T07:41:52;5.47;;;2.53;;
43457;SDS011;29046;54.184;18.680;2022-09-09T07:44:40;5.35;;;2.75;;
43457;SDS011;29046;54.184;18.680;2022-09-09T07:47:14;8.70;;;3.03;;
43457;SDS011;29046;54.184;18.680;2022-09-09T07:50:04;9.35;;;3.47;;
43457;SDS011;29046;54.184;18.680;2022-09-09T07:52:38;6.65;;;2.65;;
43457;SDS011;29046;54.184;18.680;2022-09-09T07:55:26;3.83;;;2.85;;
43457;SDS011;29046;54.184;18.680;2022-09-09T07:58:00;6.15;;;2.95;;
43457;SDS011;29046;54.184;18.680;2022-09-09T08:00:48;6.18;;;2.80;;
43457;SDS011;29046;54.184;18.680;2022-09-09T08:03:29;6.22;;;3.25;;
43457;SDS011;29046;54.184;18.680;2022-09-09T08:06:10;32.83;;;20.40;;
43457;SDS011;29046;54.184;18.680;2022-09-09T08:08:52;5.65;;;3.50;;
43457;SDS011;29046;54.184;18.680;2022-09-09T08:11:32;3.97;;;2.55;;
43457;SDS011;29046;54.184;18.680;2022-09-09T08:14:13;6.50;;;2.92;;
43457;SDS011;29046;54.184;18.680;2022-09-09T08:16:55;6.20;;;2.85;;
43457;SDS011;29046;54.184;18.680;2022-09-09T08:19:37;7.28;;;3.08;;
43457;SDS011;29046;54.184;18.680;2022-09-09T08:22:17;4.30;;;3.08;;
43457;SDS011;29046;54.184;18.680;2022-09-09T08:24:57;4.57;;;2.90;;
43457;SDS011;29046;54.184;18.680;2022-09-09T08:27:46;5.75;;;2.97;;
43457;SDS011;29046;54.184;18.680;2022-09-09T08:30:26;4.95;;;2.95;;
43457;SDS011;29046;54.184;18.680;2022-09-09T08:33:08;4.88;;;2.92;;
43457;SDS011;29046;54.184;18.680;2022-09-09T08:35:50;4.32;;;2.70;;
43457;SDS011;29046;54.184;18.680;2022-09-09T08:38:30;8.57;;;2.55;;
43457;SDS011;29046;54.184;18.680;2022-09-09T08:44:12;5.78;;;2.58;;
43457;SDS011;29046;54.184;18.680;2022-09-09T08:58:30;7.25;;;2.92;;
43457;SDS011;29046;54.184;18.680;2022-09-09T09:04:27;6.90;;;3.78;;
43457;SDS011;29046;54.184;18.680;2022-09-09T09:07:24;8.57;;;4.38;;
43457;SDS011;29046;54.184;18.680;2022-09-09T09:13:25;6.38;;;3.97;;
43457;SDS011;29046;54.184;18.680;2022-09-09T09:16:19;6.10;;;3.25;;
43457;SDS011;29046;54.184;18.680;2022-09-09T09:19:02;4.55;;;3.20;;
43457;SDS011;29046;54.184;18.680;2022-09-09T09:21:44;6.28;;;3.30;;
43457;SDS011;29046;54.184;18.680;2022-09-09T09:24:49;4.57;;;3.50;;
43457;SDS011;29046;54.184;18.680;2022-09-09T09:27:32;7.07;;;3.20;;
43457;SDS011;29046;54.184;18.680;2022-09-09T09:30:23;7.15;;;3.60;;
43457;SDS011;29046;54.184;18.680;2022-09-09T09:33:04;6.00;;;3.70;;
43457;SDS011;29046;54.184;18.680;2022-09-09T09:35:53;6.72;;;3.70;;
43457;SDS011;29046;54.184;18.680;2022-09-09T09:38:28;6.47;;;4.18;;
43457;SDS011;29046;54.184;18.680;2022-09-09T09:41:40;6.32;;;3.70;;
43457;SDS011;29046;54.184;18.680;2022-09-09T09:47:16;6.50;;;3.85;;
43457;SDS011;29046;54.184;18.680;2022-09-09T09:52:40;8.77;;;5.03;;
43457;SDS011;29046;54.184;18.680;2022-09-09T09:55:15;8.00;;;4.00;;
43457;SDS011;29046;54.184;18.680;2022-09-09T09:58:06;10.32;;;5.05;;
43457;SDS011;29046;54.184;18.680;2022-09-09T10:00:55;6.03;;;4.25;;
43457;SDS011;29046;54.184;18.680;2022-09-09T10:03:37;9.35;;;4.13;;
43457;SDS011;29046;54.184;18.680;2022-09-09T10:06:33;8.38;;;4.10;;
43457;SDS011;29046;54.184;18.680;2022-09-09T10:09:22;5.35;;;3.90;;
43457;SDS011;29046;54.184;18.680;2022-09-09T10:20:54;4.55;;;3.08;;
43457;SDS011;29046;54.184;18.680;2022-09-09T10:24:01;6.93;;;4.13;;
43457;SDS011;29046;54.184;18.680;2022-09-09T10:37:45;5.07;;;3.40;;
43457;SDS011;29046;54.184;18.680;2022-09-09T10:40:32;8.77;;;4.00;;
43457;SDS011;29046;54.184;18.680;2022-09-09T10:52:25;5.13;;;3.78;;
43457;SDS011;29046;54.184;18.680;2022-09-09T10:55:26;8.23;;;3.70;;
43457;SDS011;29046;54.184;18.680;2022-09-09T10:58:02;5.80;;;4.28;;
43457;SDS011;29046;54.184;18.680;2022-09-09T11:00:52;6.87;;;3.87;;
43457;SDS011;29046;54.184;18.680;2022-09-09T11:03:31;5.60;;;3.78;;
43457;SDS011;29046;54.184;18.680;2022-09-09T11:06:29;4.55;;;3.78;;
43457;SDS011;29046;54.184;18.680;2022-09-09T11:09:26;5.35;;;3.88;;
43457;SDS011;29046;54.184;18.680;2022-09-09T11:12:00;6.53;;;4.07;;
43457;SDS011;29046;54.184;18.680;2022-09-09T11:14:53;6.05;;;3.63;;
43457;SDS011;29046;54.184;18.680;2022-09-09T11:17:36;7.82;;;4.20;;
43457;SDS011;29046;54.184;18.680;2022-09-09T11:20:27;9.68;;;3.88;;
43457;SDS011;29046;54.184;18.680;2022-09-09T11:23:12;8.27;;;5.22;;
43457;SDS011;29046;54.184;18.680;2022-09-09T11:26:00;7.18;;;3.90;;
43457;SDS011;29046;54.184;18.680;2022-09-09T11:40:24;8.88;;;4.30;;
43457;SDS011;29046;54.184;18.680;2022-09-09T11:43:13;7.10;;;4.00;;
43457;SDS011;29046;54.184;18.680;2022-09-09T11:45:51;6.07;;;4.20;;
43457;SDS011;29046;54.184;18.680;2022-09-09T11:48:44;8.75;;;5.05;;
43457;SDS011;29046;54.184;18.680;2022-09-09T11:51:39;9.48;;;4.18;;
43457;SDS011;29046;54.184;18.680;2022-09-09T11:54:33;9.40;;;4.88;;
43457;SDS011;29046;54.184;18.680;2022-09-09T11:57:34;9.02;;;4.80;;
43457;SDS011;29046;54.184;18.680;2022-09-09T12:03:02;7.68;;;4.75;;
43457;SDS011;29046;54.184;18.680;2022-09-09T12:06:28;6.88;;;4.47;;
43457;SDS011;29046;54.184;18.680;2022-09-09T12:10:01;7.60;;;4.68;;
43457;SDS011;29046;54.184;18.680;2022-09-09T12:12:22;11.45;;;5.13;;
43457;SDS011;29046;54.184;18.680;2022-09-09T12:17:49;10.85;;;4.78;;
43457;SDS011;29046;54.184;18.680;2022-09-09T12:20:34;7.75;;;5.07;;
43457;SDS011;29046;54.184;18.680;2022-09-09T12:23:30;11.48;;;5.03;;
43457;SDS011;29046;54.184;18.680;2022-09-09T12:31:40;8.35;;;5.05;;
43457;SDS011;29046;54.184;18.680;2022-09-09T12:34:40;9.13;;;5.15;;
43457;SDS011;29046;54.184;18.680;2022-09-09T12:40:27;8.50;;;5.43;;
43457;SDS011;29046;54.184;18.680;2022-09-09T12:43:18;12.85;;;4.85;;
43457;SDS011;29046;54.184;18.680;2022-09-09T12:46:00;8.43;;;5.45;;
43457;SDS011;29046;54.184;18.680;2022-09-09T12:48:42;7.60;;;4.90;;
43457;SDS011;29046;54.184;18.680;2022-09-09T12:51:25;9.70;;;5.80;;
43457;SDS011;29046;54.184;18.680;2022-09-09T12:54:12;14.05;;;6.07;;
43457;SDS011;29046;54.184;18.680;2022-09-09T12:57:00;14.48;;;6.38;;
43457;SDS011;29046;54.184;18.680;2022-09-09T12:59:42;8.38;;;5.38;;
43457;SDS011;29046;54.184;18.680;2022-09-09T13:02:30;8.68;;;5.53;;
43457;SDS011;29046;54.184;18.680;2022-09-09T13:05:15;9.75;;;5.97;;
43457;SDS011;29046;54.184;18.680;2022-09-09T13:08:06;9.02;;;5.80;;
43457;SDS011;29046;54.184;18.680;2022-09-09T13:13:39;10.35;;;5.50;;
43457;SDS011;29046;54.184;18.680;2022-09-09T13:16:30;14.30;;;7.10;;
43457;SDS011;29046;54.184;18.680;2022-09-09T13:19:18;12.23;;;6.72;;
43457;SDS011;29046;54.184;18.680;2022-09-09T13:21:54;12.40;;;7.17;;
43457;SDS011;29046;54.184;18.680;2022-09-09T13:24:42;9.15;;;6.45;;
43457;SDS011;29046;54.184;18.680;2022-09-09T13:27:24;12.15;;;7.28;;
43457;SDS011;29046;54.184;18.680;2022-09-09T13:30:31;9.40;;;6.88;;
43457;SDS011;29046;54.184;18.680;2022-09-09T13:36:04;9.82;;;6.03;;
43457;SDS011;29046;54.184;18.680;2022-09-09T13:38:54;8.00;;;6.20;;
43457;SDS011;29046;54.184;18.680;2022-09-09T13:41:44;10.10;;;6.55;;
43457;SDS011;29046;54.184;18.680;2022-09-09T13:44:27;10.05;;;6.18;;
43457;SDS011;29046;54.184;18.680;2022-09-09T13:47:19;41.80;;;10.32;;
43457;SDS011;29046;54.184;18.680;2022-09-09T13:53:17;9.73;;;6.30;;
43457;SDS011;29046;54.184;18.680;2022-09-09T13:55:57;13.90;;;7.75;;
43457;SDS011;29046;54.184;18.680;2022-09-09T13:58:38;11.38;;;7.32;;
43457;SDS011;29046;54.184;18.680;2022-09-09T14:01:18;19.10;;;7.05;;
43457;SDS011;29046;54.184;18.680;2022-09-09T14:04:07;11.52;;;6.57;;
43457;SDS011;29046;54.184;18.680;2022-09-09T14:06:41;10.25;;;6.05;;
43457;SDS011;29046;54.184;18.680;2022-09-09T14:09:29;9.82;;;5.85;;
43457;SDS011;29046;54.184;18.680;2022-09-09T14:12:03;8.88;;;5.93;;
43457;SDS011;29046;54.184;18.680;2022-09-09T14:14:58;10.18;;;6.32;;
43457;SDS011;29046;54.184;18.680;2022-09-09T14:20:26;10.43;;;6.20;;
43457;SDS011;29046;54.184;18.680;2022-09-09T14:23:08;9.98;;;7.43;;
43457;SDS011;29046;54.184;18.680;2022-09-09T14:25:50;14.95;;;8.60;;
43457;SDS011;29046;54.184;18.680;2022-09-09T14:28:24;14.20;;;8.27;;
43457;SDS011;29046;54.184;18.680;2022-09-09T14:31:34;11.05;;;7.03;;
43457;SDS011;29046;54.184;18.680;2022-09-09T14:34:08;15.95;;;8.65;;
43457;SDS011;29046;54.184;18.680;2022-09-09T14:37:03;11.80;;;8.07;;
43457;SDS011;29046;54.184;18.680;2022-09-09T14:39:57;17.33;;;8.45;;
43457;SDS011;29046;54.184;18.680;2022-09-09T14:42:32;13.43;;;8.68;;
43457;SDS011;29046;54.184;18.680;2022-09-09T14:45:20;13.25;;;8.70;;
43457;SDS011;29046;54.184;18.680;2022-09-09T14:47:54;14.73;;;8.38;;
43457;SDS011;29046;54.184;18.680;2022-09-09T14:50:41;14.95;;;8.30;;
43457;SDS011;29046;54.184;18.680;2022-09-09T14:53:16;15.15;;;8.02;;
43457;SDS011;29046;54.184;18.680;2022-09-09T14:56:04;12.82;;;7.60;;
43457;SDS011;29046;54.184;18.680;2022-09-09T14:58:42;13.23;;;8.15;;
43457;SDS011;29046;54.184;18.680;2022-09-09T15:01:29;11.38;;;8.40;;
43457;SDS011;29046;54.184;18.680;2022-09-09T15:04:05;14.83;;;8.57;;
43457;SDS011;29046;54.184;18.680;2022-09-09T15:07:01;14.65;;;9.32;;
43457;SDS011;29046;54.184;18.680;2022-09-09T15:09:35;15.95;;;8.43;;
43457;SDS011;29046;54.184;18.680;2022-09-09T15:12:23;16.15;;;8.82;;
43457;SDS011;29046;54.184;18.680;2022-09-09T15:15:04;18.45;;;10.60;;
43457;SDS011;29046;54.184;18.680;2022-09-09T15:17:52;15.65;;;10.27;;
43457;SDS011;29046;54.184;18.680;2022-09-09T15:20:26;17.95;;;10.05;;
43457;SDS011;29046;54.184;18.680;2022-09-09T15:23:15;22.35;;;12.27;;
43457;SDS011;29046;54.184;18.680;2022-09-09T15:25:50;20.77;;;11.60;;
43457;SDS011;29046;54.184;18.680;2022-09-09T15:28:38;21.77;;;11.30;;
43457;SDS011;29046;54.184;18.680;2022-09-09T15:34:01;22.05;;;11.82;;
43457;SDS011;29046;54.184;18.680;2022-09-09T15:36:40;24.60;;;11.98;;
43457;SDS011;29046;54.184;18.680;2022-09-09T15:39:27;18.23;;;11.43;;
43457;SDS011;29046;54.184;18.680;2022-09-09T15:42:01;16.60;;;11.65;;
43457;SDS011;29046;54.184;18.680;2022-09-09T15:44:49;19.00;;;11.10;;
43457;SDS011;29046;54.184;18.680;2022-09-09T15:47:29;22.65;;;9.45;;
43457;SDS011;29046;54.184;18.680;2022-09-09T15:50:17;18.35;;;11.05;;
43457;SDS011;29046;54.184;18.680;2022-09-09T15:52:51;19.73;;;12.65;;
43457;SDS011;29046;54.184;18.680;2022-09-09T15:55:39;20.40;;;11.95;;
43457;SDS011;29046;54.184;18.680;2022-09-09T15:58:14;21.00;;;11.02;;
43457;SDS011;29046;54.184;18.680;2022-09-09T16:01:02;22.83;;;11.95;;
43457;SDS011;29046;54.184;18.680;2022-09-09T16:03:43;22.48;;;11.13;;
43457;SDS011;29046;54.184;18.680;2022-09-09T16:06:31;18.73;;;11.00;;
43457;SDS011;29046;54.184;18.680;2022-09-09T16:09:12;20.08;;;12.07;;
43457;SDS011;29046;54.184;18.680;2022-09-09T16:12:00;22.17;;;12.27;;
43457;SDS011;29046;54.184;18.680;2022-09-09T16:14:36;23.20;;;13.20;;
43457;SDS011;29046;54.184;18.680;2022-09-09T16:17:23;20.88;;;12.20;;
43457;SDS011;29046;54.184;18.680;2022-09-09T16:19:58;21.38;;;12.60;;
43457;SDS011;29046;54.184;18.680;2022-09-09T16:22:47;18.65;;;11.68;;
43457;SDS011;29046;54.184;18.680;2022-09-09T16:25:21;24.58;;;12.55;;
43457;SDS011;29046;54.184;18.680;2022-09-09T16:28:09;23.25;;;13.75;;
43457;SDS011;29046;54.184;18.680;2022-09-09T16:30:50;24.38;;;13.57;;
43457;SDS011;29046;54.184;18.680;2022-09-09T16:33:47;23.85;;;14.77;;
43457;SDS011;29046;54.184;18.680;2022-09-09T16:36:27;19.35;;;13.40;;
43457;SDS011;29046;54.184;18.680;2022-09-09T16:39:16;19.38;;;12.85;;
43457;SDS011;29046;54.184;18.680;2022-09-09T16:41:52;24.10;;;13.95;;
43457;SDS011;29046;54.184;18.680;2022-09-09T16:44:39;21.92;;;13.65;;
43457;SDS011;29046;54.184;18.680;2022-09-09T16:47:14;18.92;;;12.95;;
43457;SDS011;29046;54.184;18.680;2022-09-09T16:50:01;19.58;;;12.68;;
43457;SDS011;29046;54.184;18.680;2022-09-09T16:52:36;15.07;;;11.45;;
43457;SDS011;29046;54.184;18.680;2022-09-09T16:55:23;19.60;;;12.70;;
43457;SDS011;29046;54.184;18.680;2022-09-09T16:57:59;23.40;;;13.13;;
43457;SDS011;29046;54.184;18.680;2022-09-09T17:00:57;21.50;;;12.82;;
43457;SDS011;29046;54.184;18.680;2022-09-09T17:03:32;20.88;;;13.80;;
43457;SDS011;29046;54.184;18.680;2022-09-09T17:06:26;20.98;;;13.95;;
43457;SDS011;29046;54.184;18.680;2022-09-09T17:09:21;21.67;;;12.57;;
43457;SDS011;29046;54.184;18.680;2022-09-09T17:12:02;20.25;;;12.57;;
43457;SDS011;29046;54.184;18.680;2022-09-09T17:14:51;21.35;;;13.43;;
43457;SDS011;29046;54.184;18.680;2022-09-09T17:17:25;21.33;;;13.48;;
43457;SDS011;29046;54.184;18.680;2022-09-09T17:20:12;27.75;;;14.55;;
43457;SDS011;29046;54.184;18.680;2022-09-09T17:22:54;27.30;;;14.05;;
43457;SDS011;29046;54.184;18.680;2022-09-09T17:25:42;29.15;;;15.98;;
43457;SDS011;29046;54.184;18.680;2022-09-09T17:28:16;24.13;;;16.20;;
43457;SDS011;29046;54.184;18.680;2022-09-09T17:33:42;28.17;;;15.23;;
43457;SDS011;29046;54.184;18.680;2022-09-09T17:36:39;22.05;;;13.82;;
43457;SDS011;29046;54.184;18.680;2022-09-09T17:39:12;32.28;;;15.40;;
43457;SDS011;29046;54.184;18.680;2022-09-09T17:42:07;32.45;;;16.42;;
43457;SDS011;29046;54.184;18.680;2022-09-09T17:45:01;29.98;;;16.27;;
43457;SDS011;29046;54.184;18.680;2022-09-09T17:47:36;29.35;;;15.85;;
43457;SDS011;29046;54.184;18.680;2022-09-09T17:50:31;23.45;;;15.88;;
43457;SDS011;29046;54.184;18.680;2022-09-09T17:53:07;26.05;;;16.05;;
43457;SDS011;29046;54.184;18.680;2022-09-09T17:55:55;26.38;;;16.45;;
43457;SDS011;29046;54.184;18.680;2022-09-09T17:58:35;27.88;;;15.32;;
43457;SDS011;29046;54.184;18.680;2022-09-09T18:01:24;28.60;;;16.02;;
43457;SDS011;29046;54.184;18.680;2022-09-09T18:04:01;28.60;;;17.02;;
43457;SDS011;29046;54.184;18.680;2022-09-09T18:06:49;35.97;;;20.52;;
43457;SDS011;29046;54.184;18.680;2022-09-09T18:09:24;34.40;;;20.83;;
43457;SDS011;29046;54.184;18.680;2022-09-09T18:12:19;28.35;;;17.13;;
43457;SDS011;29046;54.184;18.680;2022-09-09T18:15:14;30.33;;;17.88;;
43457;SDS011;29046;54.184;18.680;2022-09-09T18:18:08;28.27;;;16.90;;
43457;SDS011;29046;54.184;18.680;2022-09-09T18:20:57;29.98;;;18.08;;
43457;SDS011;29046;54.184;18.680;2022-09-09T18:23:34;29.73;;;17.25;;
43457;SDS011;29046;54.184;18.680;2022-09-09T18:26:23;27.15;;;17.55;;
43457;SDS011;29046;54.184;18.680;2022-09-09T18:28:59;27.15;;;16.77;;
43457;SDS011;29046;54.184;18.680;2022-09-09T18:31:54;24.65;;;16.45;;
43457;SDS011;29046;54.184;18.680;2022-09-09T18:34:28;23.33;;;15.90;;
43457;SDS011;29046;54.184;18.680;2022-09-09T18:37:17;28.00;;;16.98;;
43457;SDS011;29046;54.184;18.680;2022-09-09T18:39:57;25.02;;;15.90;;
43457;SDS011;29046;54.184;18.680;2022-09-09T18:42:39;25.15;;;15.98;;
43457;SDS011;29046;54.184;18.680;2022-09-09T18:45:20;20.27;;;14.38;;
43457;SDS011;29046;54.184;18.680;2022-09-09T18:48:01;21.58;;;15.10;;
43457;SDS011;29046;54.184;18.680;2022-09-09T18:50:41;23.92;;;15.82;;
43457;SDS011;29046;54.184;18.680;2022-09-09T18:53:29;24.77;;;14.77;;
43457;SDS011;29046;54.184;18.680;2022-09-09T18:56:04;26.52;;;16.65;;
43457;SDS011;29046;54.184;18.680;2022-09-09T18:58:53;23.50;;;15.35;;
43457;SDS011;29046;54.184;18.680;2022-09-09T19:01:34;22.15;;;14.98;;